FOOG

Details ICAO FOOG (POG)
Name Port Gentil
Region Gabon
Timezone Africa/Libreville (UTC+1.0)
Plans Departing 73
Arriving 90
Stats Elevation 13 ft / 4 m (AMSL)
Location -0.711739° 8.754380°
Runways 1
Magnetic Variation 2.091° W
Sunrise 2020-05-26 05:21:03 UTC / 2020-05-26 06:21:03 Local
Sunset 2020-05-26 17:25:59 UTC / 2020-05-26 18:25:59 Local
Advertisement - Login to hide

Runways

ID Width Length Bearing (true/mag) Surface Threshold Overrun Markings Lighting
03 148 ft / 45 m 6,265 ft / 1,910 m 22.17° / 24.26° ASPHALT 0 ft / 0 m 0 ft / 0 m APP CENTERLINE EDGE THRESHOLD
21 148 ft / 45 m 6,265 ft / 1,910 m 202.17° / 204.26° ASPHALT 0 ft / 0 m 197 ft / 60 m APP CENTERLINE EDGE THRESHOLD

Map

Weather


0- 5 10 15 20 25 30 35+ Temperature / °C

Clouds and Precipitation
Forecast for 2020-05-26 00:00 UTC. Updated 2 hours ago

Ground ~20,000 ft ~40,000 ft Winds

METAR

FOOG 252300Z 15002KT 8000 SCT010 FEW018CB 27/26 Q1012

TAF

TAF FOOG 251700Z 2518/2618 26007KT 9999 TS SCT010 FEW020CB BKN030 PROB30 TEMPO 2519/2524 4000 TSRA BKN008 FEW018CB OVC025 BECMG 2602/2604 NSW TEMPO 2612/2618 TS BKN010 FEW020CB

Frequencies

Tower 118.30 MHz
Warning: Do not use this data for real-world aviation or navigation. No guarantee of current accuracy is given.